createdAt,value
2023-04-01T00:01:01.808Z,11.10
2023-04-01T00:03:29.315Z,11.10
2023-04-01T00:05:56.661Z,11.10
2023-04-01T00:08:23.492Z,11.10
2023-04-01T00:10:50.230Z,11.10
2023-04-01T00:13:16.917Z,11.10
2023-04-01T00:15:43.877Z,11.10
2023-04-01T00:18:10.619Z,11.10
2023-04-01T00:20:37.215Z,11.10
2023-04-01T00:23:04.018Z,11.10
2023-04-01T00:25:30.880Z,11.20
2023-04-01T00:27:57.850Z,11.20
2023-04-01T00:30:24.491Z,11.20
2023-04-01T00:32:54.514Z,11.10
2023-04-01T00:35:21.473Z,11.10
2023-04-01T00:37:48.422Z,11.00
2023-04-01T00:40:29.764Z,11.00
2023-04-01T00:42:56.477Z,11.00
2023-04-01T00:45:37.224Z,11.00
2023-04-01T00:48:09.825Z,11.00
2023-04-01T00:50:37.897Z,11.00
2023-04-01T00:53:06.456Z,11.00
2023-04-01T00:55:34.524Z,11.00
2023-04-01T00:58:02.811Z,11.00
2023-04-01T01:00:29.374Z,11.00
2023-04-01T01:02:56.208Z,11.00
2023-04-01T01:05:26.645Z,11.00
2023-04-01T01:08:10.854Z,11.00
2023-04-01T01:10:39.342Z,11.00
2023-04-01T01:13:15.441Z,11.00
2023-04-01T01:15:53.994Z,11.00
2023-04-01T01:18:29.753Z,11.00
2023-04-01T01:21:05.528Z,10.90
2023-04-01T01:23:51.159Z,10.90
2023-04-01T01:26:36.486Z,10.90
2023-04-01T01:29:06.409Z,10.90
2023-04-01T01:31:53.850Z,10.90
2023-04-01T01:34:23.219Z,10.90
2023-04-01T01:36:51.735Z,10.90
2023-04-01T01:39:19.435Z,11.00
2023-04-01T01:41:50.244Z,10.90
2023-04-01T01:44:17.387Z,11.00
2023-04-01T01:46:44.337Z,11.00
2023-04-01T01:49:12.657Z,11.00
2023-04-01T01:51:40.175Z,11.00
2023-04-01T01:54:06.834Z,11.00
2023-04-01T01:56:34.170Z,10.90
2023-04-01T01:59:03.099Z,10.90
2023-04-01T02:01:33.672Z,10.80
2023-04-01T02:04:00.421Z,10.80
2023-04-01T02:06:29.126Z,10.80
2023-04-01T02:08:57.700Z,10.70
2023-04-01T02:11:27.554Z,10.70
2023-04-01T02:13:57.327Z,10.70
2023-04-01T02:16:27.016Z,10.80
2023-04-01T02:18:55.382Z,10.90
2023-04-01T02:21:23.071Z,10.90
2023-04-01T02:23:50.495Z,10.90
2023-04-01T02:26:17.108Z,10.90
2023-04-01T02:28:44.345Z,10.80
2023-04-01T02:31:11.681Z,10.80
2023-04-01T02:33:39.544Z,10.80
2023-04-01T02:36:06.556Z,10.90
2023-04-01T02:38:36.422Z,10.80
2023-04-01T02:41:03.609Z,10.90
2023-04-01T02:43:30.259Z,10.90
2023-04-01T02:45:56.900Z,10.90
2023-04-01T02:48:23.637Z,10.90
2023-04-01T02:50:50.427Z,10.90
2023-04-01T02:53:17.511Z,10.90
2023-04-01T02:55:44.136Z,10.90
2023-04-01T02:58:11.083Z,11.00
2023-04-01T03:00:37.835Z,11.00
2023-04-01T03:03:04.816Z,11.00
2023-04-01T03:05:31.927Z,11.00
2023-04-01T03:07:58.778Z,11.00
2023-04-01T03:10:25.671Z,11.00
2023-04-01T03:12:52.448Z,11.00
2023-04-01T03:15:19.157Z,11.00
2023-04-01T03:17:47.691Z,11.00
2023-04-01T03:20:14.808Z,10.90
2023-04-01T03:22:43.080Z,10.90
2023-04-01T03:25:10.746Z,10.90
2023-04-01T03:27:37.370Z,10.90
2023-04-01T03:30:04.750Z,10.90
2023-04-01T03:32:31.517Z,11.00
2023-04-01T03:34:58.204Z,11.00
2023-04-01T03:37:24.886Z,11.00
2023-04-01T03:39:51.860Z,11.00
2023-04-01T03:42:18.662Z,11.00
2023-04-01T03:44:45.507Z,11.00
2023-04-01T03:47:12.063Z,11.00
2023-04-01T03:49:38.634Z,11.00
2023-04-01T03:52:05.446Z,11.00
2023-04-01T03:54:33.068Z,11.00
2023-04-01T03:56:59.882Z,11.00
2023-04-01T03:59:27.005Z,11.00
2023-04-01T04:01:53.658Z,11.00
2023-04-01T04:04:20.261Z,11.00
2023-04-01T04:06:46.986Z,11.00
2023-04-01T04:09:13.556Z,11.00
2023-04-01T04:11:40.302Z,11.10
2023-04-01T04:14:06.925Z,11.00
2023-04-01T04:16:35.409Z,11.00
2023-04-01T04:19:02.014Z,11.00
2023-04-01T04:21:28.592Z,11.00
2023-04-01T04:23:55.244Z,11.00
2023-04-01T04:26:21.886Z,11.00
2023-04-01T04:28:49.042Z,11.00
2023-04-01T04:31:22.697Z,11.00
2023-04-01T04:33:49.741Z,11.00
2023-04-01T04:36:16.416Z,11.00
2023-04-01T04:38:42.983Z,11.00
2023-04-01T04:41:13.646Z,11.00
2023-04-01T04:43:40.915Z,11.00
2023-04-01T04:46:08.300Z,11.00
2023-04-01T04:48:35.461Z,11.00
2023-04-01T04:51:02.086Z,11.00
2023-04-01T04:53:28.870Z,11.00
2023-04-01T04:55:55.716Z,11.10
2023-04-01T04:58:22.448Z,11.00
2023-04-01T05:00:49.046Z,11.00
2023-04-01T05:03:15.815Z,11.00
2023-04-01T05:05:50.536Z,11.10
2023-04-01T05:08:17.211Z,11.10
2023-04-01T05:10:43.762Z,11.10
2023-04-01T05:13:10.388Z,11.10
2023-04-01T05:15:38.331Z,11.10
2023-04-01T05:18:04.990Z,11.00
2023-04-01T05:20:31.640Z,11.10
2023-04-01T05:22:58.631Z,11.10
2023-04-01T05:25:25.429Z,11.10
2023-04-01T05:27:52.071Z,11.10
2023-04-01T05:30:18.902Z,11.10
2023-04-01T05:32:45.750Z,11.10
2023-04-01T05:35:12.641Z,11.20
2023-04-01T05:37:39.303Z,11.20
2023-04-01T05:40:06.568Z,11.20
2023-04-01T05:42:33.237Z,11.30
2023-04-01T05:44:59.809Z,11.20
2023-04-01T05:47:26.444Z,11.30
2023-04-01T05:49:53.031Z,11.30
2023-04-01T05:52:19.618Z,11.40
2023-04-01T05:54:46.168Z,11.40
2023-04-01T05:57:12.861Z,11.30
2023-04-01T05:59:39.555Z,11.40
2023-04-01T06:02:06.629Z,11.40
2023-04-01T06:04:35.756Z,11.40
2023-04-01T06:07:02.366Z,11.30
2023-04-01T06:09:30.391Z,11.40
2023-04-01T06:12:09.959Z,11.40
2023-04-01T06:14:48.370Z,11.40
2023-04-01T06:17:33.539Z,11.30
2023-04-01T06:20:04.866Z,11.40
2023-04-01T06:22:34.524Z,11.40
2023-04-01T06:25:01.081Z,11.40
2023-04-01T06:27:36.872Z,11.40
2023-04-01T06:30:09.655Z,11.40
2023-04-01T06:33:12.055Z,11.40
2023-04-01T06:35:45.519Z,11.40
2023-04-01T06:38:15.265Z,11.40
2023-04-01T06:41:00.725Z,11.40
2023-04-01T06:43:48.916Z,11.40
2023-04-01T06:46:30.695Z,11.40
2023-04-01T06:49:07.524Z,11.40
2023-04-01T06:51:43.872Z,11.40
2023-04-01T06:54:13.539Z,11.40
2023-04-01T06:56:42.908Z,11.40
2023-04-01T06:59:21.467Z,11.40
2023-04-01T07:02:12.997Z,11.50
2023-04-01T07:04:41.998Z,11.50
2023-04-01T07:07:25.305Z,11.50
2023-04-01T07:09:53.103Z,11.60
2023-04-01T07:12:23.772Z,11.60
2023-04-01T07:14:51.122Z,11.60
2023-04-01T07:17:17.670Z,11.60
2023-04-01T07:20:04.598Z,11.70
2023-04-01T07:22:36.558Z,11.60
2023-04-01T07:25:23.580Z,11.60
2023-04-01T07:27:51.210Z,11.60
2023-04-01T07:30:21.965Z,11.70
2023-04-01T07:32:51.732Z,11.80
2023-04-01T07:35:21.579Z,11.90
2023-04-01T07:37:53.993Z,11.90
2023-04-01T07:40:38.975Z,11.80
2023-04-01T07:43:11.729Z,11.80
2023-04-01T07:45:43.092Z,11.80
2023-04-01T07:48:32.222Z,11.80
2023-04-01T07:51:11.087Z,11.90
2023-04-01T07:53:43.570Z,12.10
2023-04-01T07:56:13.030Z,12.20
2023-04-01T07:58:58.506Z,12.20
2023-04-01T08:01:32.116Z,12.30
2023-04-01T08:03:58.884Z,12.30
2023-04-01T08:06:29.511Z,12.30
2023-04-01T08:08:56.067Z,12.30
2023-04-01T08:11:29.351Z,12.20
2023-04-01T08:13:58.712Z,12.00
2023-04-01T08:16:37.677Z,11.80
2023-04-01T08:19:04.347Z,11.60
2023-04-01T08:21:36.455Z,11.40
2023-04-01T08:24:11.393Z,11.70
2023-04-01T08:26:44.037Z,12.00
2023-04-01T08:29:19.241Z,12.30
2023-04-01T08:31:45.841Z,12.10
2023-04-01T08:34:25.289Z,11.80
2023-04-01T08:36:55.215Z,11.70
2023-04-01T08:39:33.627Z,11.50
2023-04-01T08:42:18.843Z,11.40
2023-04-01T08:44:45.463Z,11.30
2023-04-01T08:47:32.519Z,11.20
2023-04-01T08:50:02.180Z,11.20
2023-04-01T08:52:46.653Z,11.20
2023-04-01T08:55:16.259Z,11.20
2023-04-01T08:57:42.875Z,11.20
2023-04-01T09:00:09.509Z,11.10
2023-04-01T09:02:55.215Z,11.10
2023-04-01T09:05:27.776Z,11.00
2023-04-01T09:07:54.419Z,11.20
2023-04-01T09:10:30.189Z,11.10
2023-04-01T09:12:59.754Z,11.20
2023-04-01T09:15:32.662Z,11.20
2023-04-01T09:18:18.327Z,11.20
2023-04-01T09:20:57.077Z,11.30
2023-04-01T09:23:42.542Z,11.50
2023-04-01T09:26:12.122Z,11.40
2023-04-01T09:28:50.926Z,11.40
2023-04-01T09:31:36.387Z,11.50
2023-04-01T09:34:06.022Z,11.40
2023-04-01T09:36:52.874Z,11.50
2023-04-01T09:39:39.542Z,11.50
2023-04-01T09:42:08.936Z,11.60
2023-04-01T09:44:37.996Z,11.80
2023-04-01T09:47:10.987Z,11.80
2023-04-01T09:49:55.998Z,11.70
2023-04-01T09:52:31.617Z,11.70
2023-04-01T09:55:21.670Z,11.90
2023-04-01T09:57:57.301Z,11.90
2023-04-01T10:00:40.776Z,11.80
2023-04-01T10:03:11.013Z,11.70
2023-04-01T10:05:43.582Z,11.70
2023-04-01T10:08:13.166Z,11.60
2023-04-01T10:10:58.536Z,11.70
2023-04-01T10:13:35.849Z,11.80
2023-04-01T10:16:07.438Z,11.70
2023-04-01T10:18:49.116Z,11.50
2023-04-01T10:21:34.684Z,11.50
2023-04-01T10:24:11.098Z,11.30
2023-04-01T10:26:37.691Z,11.10
2023-04-01T10:29:07.098Z,11.10
2023-04-01T10:31:39.777Z,11.00
2023-04-01T10:34:24.950Z,10.70
2023-04-01T10:36:52.163Z,10.70
2023-04-01T10:39:35.792Z,10.80
2023-04-01T10:42:20.890Z,10.90
2023-04-01T10:44:50.624Z,10.80
2023-04-01T10:47:27.947Z,10.80
2023-04-01T10:50:00.741Z,10.80
2023-04-01T10:52:42.744Z,10.80
2023-04-01T10:55:15.512Z,10.80
2023-04-01T10:57:45.214Z,10.70
2023-04-01T11:00:30.064Z,10.60
2023-04-01T11:03:09.116Z,10.50
2023-04-01T11:05:35.924Z,10.70
2023-04-01T11:08:21.551Z,10.80
2023-04-01T11:11:03.833Z,10.80
2023-04-01T11:13:49.237Z,10.80
2023-04-01T11:16:28.027Z,10.90
2023-04-01T11:19:09.675Z,11.00
2023-04-01T11:22:15.213Z,11.10
2023-04-01T11:24:53.918Z,10.90
2023-04-01T11:27:39.845Z,10.80
2023-04-01T11:30:25.177Z,10.90
2023-04-01T11:33:07.276Z,10.90
2023-04-01T11:35:39.045Z,10.70
2023-04-01T11:38:10.711Z,10.70
2023-04-01T11:40:37.386Z,10.50
2023-04-01T11:43:03.915Z,10.50
2023-04-01T11:45:35.110Z,10.50
2023-04-01T11:48:14.186Z,10.40
2023-04-01T11:50:59.655Z,10.30
2023-04-01T11:53:26.442Z,10.30
2023-04-01T11:56:05.052Z,10.30
2023-04-01T11:58:43.638Z,10.20
2023-04-01T12:01:10.548Z,10.20
2023-04-01T12:03:49.763Z,10.20
2023-04-01T12:06:28.597Z,10.10
2023-04-01T12:09:20.216Z,10.10
2023-04-01T12:12:10.113Z,10.10
2023-04-01T12:14:45.550Z,10.10
2023-04-01T12:17:31.028Z,10.00
2023-04-01T12:20:12.739Z,10.10
2023-04-01T12:22:42.422Z,10.00
2023-04-01T12:25:24.380Z,10.10
2023-04-01T12:27:53.963Z,10.10
2023-04-01T12:30:40.018Z,10.00
2023-04-01T12:33:25.448Z,9.90
2023-04-01T12:36:01.604Z,9.90
2023-04-01T12:38:28.661Z,9.90
2023-04-01T12:41:01.293Z,9.80
2023-04-01T12:43:36.341Z,9.80
2023-04-01T12:46:15.337Z,9.80
2023-04-01T12:48:51.602Z,9.90
2023-04-01T12:51:28.072Z,10.10
2023-04-01T12:54:03.721Z,10.10
2023-04-01T12:56:49.164Z,10.10
2023-04-01T12:59:18.823Z,10.20
2023-04-01T13:01:53.486Z,10.00
2023-04-01T13:04:39.077Z,9.90
2023-04-01T13:07:12.222Z,9.90
2023-04-01T13:09:56.732Z,9.80
2023-04-01T13:12:42.435Z,9.80
2023-04-01T13:15:09.056Z,9.70
2023-04-01T13:17:50.981Z,9.70
2023-04-01T13:20:37.825Z,9.70
2023-04-01T13:23:13.394Z,9.50
2023-04-01T13:25:45.983Z,9.40
2023-04-01T13:28:24.991Z,9.50
2023-04-01T13:31:01.504Z,9.40
2023-04-01T13:33:47.445Z,9.50
2023-04-01T13:36:32.577Z,9.40
2023-04-01T13:38:59.816Z,9.40
2023-04-01T13:41:38.367Z,9.30
2023-04-01T13:44:12.198Z,9.30
2023-04-01T13:46:38.791Z,9.10
2023-04-01T13:49:23.818Z,9.10
2023-04-01T13:51:57.361Z,9.00
2023-04-01T13:54:23.989Z,9.00
2023-04-01T13:57:10.916Z,9.00
2023-04-01T13:59:40.454Z,9.00
2023-04-01T14:02:25.565Z,9.00
2023-04-01T14:04:58.254Z,9.00
2023-04-01T14:07:51.012Z,9.00
2023-04-01T14:10:20.530Z,9.10
2023-04-01T14:13:06.581Z,9.10
2023-04-01T14:15:45.142Z,9.20
2023-04-01T14:18:19.842Z,9.30
2023-04-01T14:21:12.864Z,9.30
2023-04-01T14:23:43.385Z,9.20
2023-04-01T14:26:12.744Z,9.20
2023-04-01T14:28:58.268Z,9.10
2023-04-01T14:31:24.885Z,9.10
2023-04-01T14:33:51.538Z,9.20
2023-04-01T14:36:37.237Z,9.10
2023-04-01T14:39:22.816Z,9.10
2023-04-01T14:41:50.311Z,9.10
2023-04-01T14:44:20.580Z,9.00
2023-04-01T14:47:09.972Z,9.00
2023-04-01T14:49:36.585Z,8.90
2023-04-01T14:52:10.968Z,8.90
2023-04-01T14:54:38.666Z,8.90
2023-04-01T14:57:12.121Z,9.00
2023-04-01T14:59:46.749Z,10.50
2023-04-01T15:02:32.335Z,9.00
2023-04-01T15:05:08.382Z,8.80
2023-04-01T15:07:50.257Z,8.70
2023-04-01T15:10:43.868Z,8.70
2023-04-01T15:13:10.442Z,8.90
2023-04-01T15:15:45.405Z,8.80
2023-04-01T15:18:12.111Z,8.80
2023-04-01T15:20:53.763Z,8.80
2023-04-01T15:23:38.945Z,8.80
2023-04-01T15:26:13.899Z,8.70
2023-04-01T15:28:44.344Z,8.60
2023-04-01T15:31:10.926Z,8.50
2023-04-01T15:33:46.062Z,8.50
2023-04-01T15:36:31.111Z,8.40
2023-04-01T15:39:03.616Z,8.50
2023-04-01T15:41:36.522Z,8.50
2023-04-01T15:44:04.324Z,8.50
2023-04-01T15:46:48.652Z,8.60
2023-04-01T15:49:27.320Z,8.50
2023-04-01T15:51:57.495Z,8.40
2023-04-01T15:54:24.127Z,8.60
2023-04-01T15:56:57.055Z,8.60
2023-04-01T15:59:32.478Z,8.60
2023-04-01T16:02:11.935Z,8.40
2023-04-01T16:04:41.610Z,8.40
2023-04-01T16:07:23.164Z,8.30
2023-04-01T16:10:08.502Z,8.20
2023-04-01T16:13:10.823Z,8.10
2023-04-01T16:15:56.051Z,8.00
2023-04-01T16:18:23.271Z,7.90
2023-04-01T16:21:01.405Z,8.00
2023-04-01T16:23:31.405Z,7.90
2023-04-01T16:26:03.834Z,7.90
2023-04-01T16:28:43.963Z,7.90
2023-04-01T16:31:10.615Z,7.90
2023-04-01T16:33:40.088Z,7.90
2023-04-01T16:36:10.820Z,7.80
2023-04-01T16:38:38.341Z,7.80
2023-04-01T16:41:07.922Z,7.80
2023-04-01T16:43:47.631Z,7.80
2023-04-01T16:46:14.286Z,7.70
2023-04-01T16:49:00.989Z,7.70
2023-04-01T16:51:33.843Z,7.60
2023-04-01T16:54:07.811Z,7.60
2023-04-01T16:56:40.102Z,7.60
2023-04-01T16:59:20.764Z,7.50
2023-04-01T17:01:50.563Z,7.40
2023-04-01T17:04:30.208Z,7.50
2023-04-01T17:07:08.226Z,7.50
2023-04-01T17:09:58.241Z,7.60
2023-04-01T17:12:57.502Z,7.50
2023-04-01T17:15:42.609Z,7.40
2023-04-01T17:18:35.523Z,7.20
2023-04-01T17:21:34.572Z,7.20
2023-04-01T17:24:15.852Z,7.10
2023-04-01T17:27:05.552Z,7.10
2023-04-01T17:29:38.205Z,7.10
2023-04-01T17:32:10.571Z,7.10
2023-04-01T17:34:43.828Z,7.10
2023-04-01T17:37:20.568Z,7.00
2023-04-01T17:39:47.154Z,7.00
2023-04-01T17:42:36.742Z,6.90
2023-04-01T17:45:03.401Z,6.90
2023-04-01T17:47:46.263Z,6.90
2023-04-01T17:50:23.664Z,6.90
2023-04-01T17:52:53.357Z,6.80
2023-04-01T17:55:32.229Z,6.80
2023-04-01T17:57:58.788Z,6.60
2023-04-01T18:00:42.070Z,6.60
2023-04-01T18:03:17.423Z,6.60
2023-04-01T18:05:44.101Z,6.60
2023-04-01T18:08:16.364Z,6.60
2023-04-01T18:10:42.907Z,6.50
2023-04-01T18:13:10.683Z,6.50
2023-04-01T18:15:56.152Z,6.50
2023-04-01T18:18:31.846Z,6.50
2023-04-01T18:21:17.325Z,6.50
2023-04-01T18:24:02.133Z,6.50
2023-04-01T18:26:33.109Z,6.50
2023-04-01T18:29:12.079Z,6.50
2023-04-01T18:31:41.225Z,6.40
2023-04-01T18:34:19.943Z,6.50
2023-04-01T18:36:56.413Z,6.30
2023-04-01T18:39:26.826Z,6.40
2023-04-01T18:41:53.494Z,6.40
2023-04-01T18:44:29.433Z,6.50
2023-04-01T18:47:01.184Z,6.80
2023-04-01T18:49:34.567Z,6.70
2023-04-01T18:52:09.400Z,6.50
2023-04-01T18:54:45.337Z,6.60
2023-04-01T18:57:13.715Z,6.50
2023-04-01T18:59:42.269Z,6.50
2023-04-01T19:02:21.687Z,6.50
2023-04-01T19:04:54.332Z,6.40
2023-04-01T19:07:30.834Z,6.40
2023-04-01T19:10:01.064Z,6.30
2023-04-01T19:12:36.734Z,6.30
2023-04-01T19:15:10.602Z,6.30
2023-04-01T19:17:45.116Z,6.20
2023-04-01T19:20:11.711Z,6.30
2023-04-01T19:22:51.212Z,6.30
2023-04-01T19:25:37.725Z,6.30
2023-04-01T19:28:07.580Z,6.10
2023-04-01T19:30:43.030Z,6.00
2023-04-01T19:33:09.576Z,6.00
2023-04-01T19:35:59.691Z,5.90
2023-04-01T19:38:35.747Z,5.90
2023-04-01T19:41:12.284Z,5.90
2023-04-01T19:43:38.813Z,5.90
2023-04-01T19:46:17.688Z,5.80
2023-04-01T19:48:49.440Z,5.80
2023-04-01T19:51:17.735Z,5.70
2023-04-01T19:53:47.094Z,5.70
2023-04-01T19:56:22.364Z,5.70
2023-04-01T19:58:58.575Z,5.70
2023-04-01T20:01:45.195Z,5.70
2023-04-01T20:04:15.621Z,5.70
2023-04-01T20:07:14.851Z,5.70
2023-04-01T20:09:53.474Z,5.70
2023-04-01T20:12:31.810Z,5.80
2023-04-01T20:14:59.445Z,5.70
2023-04-01T20:17:38.007Z,5.80
2023-04-01T20:20:18.828Z,5.80
2023-04-01T20:22:45.711Z,5.90
2023-04-01T20:25:21.307Z,5.70
2023-04-01T20:27:53.045Z,5.60
2023-04-01T20:30:27.505Z,5.50
2023-04-01T20:33:13.178Z,5.70
2023-04-01T20:35:48.154Z,5.60
2023-04-01T20:38:30.944Z,5.60
2023-04-01T20:41:12.869Z,5.50
2023-04-01T20:43:59.388Z,5.60
2023-04-01T20:46:46.299Z,5.50
2023-04-01T20:49:16.973Z,5.60
2023-04-01T20:51:50.948Z,5.50
2023-04-01T20:54:35.777Z,5.50
2023-04-01T20:57:26.207Z,5.50
2023-04-01T21:00:01.271Z,5.50
2023-04-01T21:02:27.930Z,5.50
2023-04-01T21:04:54.560Z,5.40
2023-04-01T21:07:27.167Z,5.40
2023-04-01T21:09:56.887Z,5.40
2023-04-01T21:12:31.721Z,5.30
2023-04-01T21:15:16.792Z,5.20
2023-04-01T21:17:51.498Z,5.20
2023-04-01T21:20:24.431Z,5.70
2023-04-01T21:22:51.195Z,5.20
2023-04-01T21:25:17.744Z,5.10
2023-04-01T21:28:03.164Z,5.10
2023-04-01T21:30:36.668Z,5.10
2023-04-01T21:33:18.023Z,5.10
2023-04-01T21:35:44.643Z,5.20
2023-04-01T21:38:14.078Z,5.30
2023-04-01T21:40:58.972Z,5.30
2023-04-01T21:43:35.784Z,5.30
2023-04-01T21:46:20.736Z,5.30
2023-04-01T21:48:59.506Z,5.30
2023-04-01T21:51:41.520Z,5.20
2023-04-01T21:54:20.463Z,5.20
2023-04-01T21:57:06.164Z,5.10
2023-04-01T21:59:48.221Z,5.10
2023-04-01T22:02:14.851Z,5.10
2023-04-01T22:04:41.427Z,5.00
2023-04-01T22:07:21.282Z,5.00
2023-04-01T22:10:00.960Z,5.00
2023-04-01T22:12:30.961Z,5.00
2023-04-01T22:15:13.498Z,5.00
2023-04-01T22:17:50.353Z,5.10
2023-04-01T22:20:16.981Z,5.10
2023-04-01T22:23:01.939Z,5.00
2023-04-01T22:25:43.511Z,5.10
2023-04-01T22:28:13.032Z,5.00
2023-04-01T22:30:39.643Z,5.00
2023-04-01T22:33:16.576Z,5.10
2023-04-01T22:35:49.733Z,4.90
2023-04-01T22:38:34.910Z,4.90
2023-04-01T22:41:13.223Z,5.00
2023-04-01T22:43:41.324Z,5.10
2023-04-01T22:46:27.470Z,5.50
2023-04-01T22:49:02.756Z,5.10
2023-04-01T22:51:45.554Z,5.10
2023-04-01T22:54:12.143Z,5.20
2023-04-01T22:56:41.541Z,5.20
2023-04-01T22:59:22.072Z,5.20
2023-04-01T23:02:06.795Z,5.10
2023-04-01T23:04:34.913Z,5.00
2023-04-01T23:07:04.653Z,5.10
2023-04-01T23:09:32.526Z,5.10
2023-04-01T23:11:59.069Z,5.00
2023-04-01T23:14:38.081Z,5.00
2023-04-01T23:17:10.662Z,5.00
2023-04-01T23:19:37.238Z,5.00
2023-04-01T23:22:24.060Z,4.90
2023-04-01T23:24:54.381Z,4.90
2023-04-01T23:27:43.148Z,4.90
2023-04-01T23:30:28.238Z,5.00
2023-04-01T23:32:54.943Z,4.90
2023-04-01T23:35:21.600Z,4.90
2023-04-01T23:37:48.170Z,4.80
2023-04-01T23:40:14.891Z,4.80
2023-04-01T23:42:42.201Z,4.80
2023-04-01T23:45:18.241Z,4.70
2023-04-01T23:47:46.642Z,4.70
2023-04-01T23:50:15.505Z,4.80
2023-04-01T23:52:47.827Z,4.70
2023-04-01T23:55:18.443Z,4.70
2023-04-01T23:58:01.846Z,4.70
